sensor_id;sensor_type;location;lat;lon;timestamp;temperature;humidity
19110;DHT22;9687;50.836;12.060;2024-01-10T00:01:15;-4.60;69.20
19110;DHT22;9687;50.836;12.060;2024-01-10T00:03:44;-4.60;69.20
19110;DHT22;9687;50.836;12.060;2024-01-10T00:06:14;-4.60;69.30
19110;DHT22;9687;50.836;12.060;2024-01-10T00:08:44;-4.60;68.70
19110;DHT22;9687;50.836;12.060;2024-01-10T00:11:15;-4.60;68.70
19110;DHT22;9687;50.836;12.060;2024-01-10T00:13:42;-4.60;68.60
19110;DHT22;9687;50.836;12.060;2024-01-10T00:16:11;-4.60;69.20
19110;DHT22;9687;50.836;12.060;2024-01-10T00:18:39;-4.60;69.10
19110;DHT22;9687;50.836;12.060;2024-01-10T00:21:08;-4.70;69.00
19110;DHT22;9687;50.836;12.060;2024-01-10T00:23:36;-4.70;68.20
19110;DHT22;9687;50.836;12.060;2024-01-10T00:26:04;-4.80;68.20
19110;DHT22;9687;50.836;12.060;2024-01-10T00:28:34;-4.90;68.80
19110;DHT22;9687;50.836;12.060;2024-01-10T00:31:07;-4.90;68.90
19110;DHT22;9687;50.836;12.060;2024-01-10T00:33:35;-5.00;68.30
19110;DHT22;9687;50.836;12.060;2024-01-10T00:36:03;-5.00;69.00
19110;DHT22;9687;50.836;12.060;2024-01-10T00:38:31;-5.00;68.50
19110;DHT22;9687;50.836;12.060;2024-01-10T00:41:12;-5.10;69.20
19110;DHT22;9687;50.836;12.060;2024-01-10T00:43:44;-5.10;68.70
19110;DHT22;9687;50.836;12.060;2024-01-10T00:46:12;-5.00;69.50
19110;DHT22;9687;50.836;12.060;2024-01-10T00:48:41;-5.10;69.30
19110;DHT22;9687;50.836;12.060;2024-01-10T00:51:10;-5.00;69.40
19110;DHT22;9687;50.836;12.060;2024-01-10T00:53:39;-5.00;69.30
19110;DHT22;9687;50.836;12.060;2024-01-10T00:56:07;-5.00;69.30
19110;DHT22;9687;50.836;12.060;2024-01-10T00:58:36;-4.80;69.50
19110;DHT22;9687;50.836;12.060;2024-01-10T01:01:05;-5.00;69.20
19110;DHT22;9687;50.836;12.060;2024-01-10T01:03:33;-5.00;68.60
19110;DHT22;9687;50.836;12.060;2024-01-10T01:06:05;-5.00;68.60
19110;DHT22;9687;50.836;12.060;2024-01-10T01:08:34;-5.00;69.30
19110;DHT22;9687;50.836;12.060;2024-01-10T01:11:03;-5.00;68.60
19110;DHT22;9687;50.836;12.060;2024-01-10T01:13:31;-5.00;68.60
19110;DHT22;9687;50.836;12.060;2024-01-10T01:15:59;-5.00;69.20
19110;DHT22;9687;50.836;12.060;2024-01-10T01:18:29;-5.10;68.90
19110;DHT22;9687;50.836;12.060;2024-01-10T01:20:56;-5.00;68.90
19110;DHT22;9687;50.836;12.060;2024-01-10T01:23:24;-5.10;68.90
19110;DHT22;9687;50.836;12.060;2024-01-10T01:25:54;-5.10;68.40
19110;DHT22;9687;50.836;12.060;2024-01-10T01:28:22;-5.10;69.00
19110;DHT22;9687;50.836;12.060;2024-01-10T01:30:50;-5.00;68.50
19110;DHT22;9687;50.836;12.060;2024-01-10T01:33:19;-5.10;68.40
19110;DHT22;9687;50.836;12.060;2024-01-10T01:35:49;-5.10;69.00
19110;DHT22;9687;50.836;12.060;2024-01-10T01:38:17;-5.10;69.00
19110;DHT22;9687;50.836;12.060;2024-01-10T01:40:45;-5.10;69.00
19110;DHT22;9687;50.836;12.060;2024-01-10T01:43:19;-5.10;69.00
19110;DHT22;9687;50.836;12.060;2024-01-10T01:45:51;-5.10;68.90
19110;DHT22;9687;50.836;12.060;2024-01-10T01:48:20;-5.10;68.90
19110;DHT22;9687;50.836;12.060;2024-01-10T01:50:50;-5.10;68.90
19110;DHT22;9687;50.836;12.060;2024-01-10T01:53:21;-5.10;68.20
19110;DHT22;9687;50.836;12.060;2024-01-10T01:55:50;-5.10;68.90
19110;DHT22;9687;50.836;12.060;2024-01-10T01:58:20;-5.10;68.20
19110;DHT22;9687;50.836;12.060;2024-01-10T02:00:48;-5.20;68.70
19110;DHT22;9687;50.836;12.060;2024-01-10T02:03:17;-5.10;68.20
19110;DHT22;9687;50.836;12.060;2024-01-10T02:05:45;-5.20;68.10
19110;DHT22;9687;50.836;12.060;2024-01-10T02:08:15;-5.20;68.70
19110;DHT22;9687;50.836;12.060;2024-01-10T02:10:47;-5.20;68.10
19110;DHT22;9687;50.836;12.060;2024-01-10T02:13:16;-5.20;68.70
19110;DHT22;9687;50.836;12.060;2024-01-10T02:15:44;-5.20;68.10
19110;DHT22;9687;50.836;12.060;2024-01-10T02:18:12;-5.30;67.90
19110;DHT22;9687;50.836;12.060;2024-01-10T02:20:59;-5.30;67.90
19110;DHT22;9687;50.836;12.060;2024-01-10T02:23:28;-5.40;68.50
19110;DHT22;9687;50.836;12.060;2024-01-10T02:25:59;-5.40;68.50
19110;DHT22;9687;50.836;12.060;2024-01-10T02:28:28;-5.40;68.50
19110;DHT22;9687;50.836;12.060;2024-01-10T02:30:57;-5.50;68.30
19110;DHT22;9687;50.836;12.060;2024-01-10T02:33:28;-5.50;67.80
19110;DHT22;9687;50.836;12.060;2024-01-10T02:35:57;-5.60;67.80
19110;DHT22;9687;50.836;12.060;2024-01-10T02:38:26;-5.70;67.80
19110;DHT22;9687;50.836;12.060;2024-01-10T02:40:54;-5.60;68.80
19110;DHT22;9687;50.836;12.060;2024-01-10T02:43:25;-5.60;68.90
19110;DHT22;9687;50.836;12.060;2024-01-10T02:45:56;-5.60;69.00
19110;DHT22;9687;50.836;12.060;2024-01-10T02:48:24;-5.60;68.30
19110;DHT22;9687;50.836;12.060;2024-01-10T02:50:52;-5.60;68.30
19110;DHT22;9687;50.836;12.060;2024-01-10T02:53:23;-5.60;68.90
19110;DHT22;9687;50.836;12.060;2024-01-10T02:55:52;-5.60;68.90
19110;DHT22;9687;50.836;12.060;2024-01-10T02:58:21;-5.60;68.20
19110;DHT22;9687;50.836;12.060;2024-01-10T03:00:53;-5.60;68.20
19110;DHT22;9687;50.836;12.060;2024-01-10T03:03:20;-5.60;68.90
19110;DHT22;9687;50.836;12.060;2024-01-10T03:05:49;-5.10;69.40
19110;DHT22;9687;50.836;12.060;2024-01-10T03:08:17;-5.50;68.90
19110;DHT22;9687;50.836;12.060;2024-01-10T03:10:46;-5.60;68.20
19110;DHT22;9687;50.836;12.060;2024-01-10T03:13:19;-4.40;70.00
19110;DHT22;9687;50.836;12.060;2024-01-10T03:15:47;-5.60;68.80
19110;DHT22;9687;50.836;12.060;2024-01-10T03:18:19;-5.60;68.10
19110;DHT22;9687;50.836;12.060;2024-01-10T03:20:49;-5.60;68.70
19110;DHT22;9687;50.836;12.060;2024-01-10T03:23:17;-5.60;68.80
19110;DHT22;9687;50.836;12.060;2024-01-10T03:25:46;-5.60;68.20
19110;DHT22;9687;50.836;12.060;2024-01-10T03:28:15;-5.50;68.90
19110;DHT22;9687;50.836;12.060;2024-01-10T03:30:44;-5.60;68.80
19110;DHT22;9687;50.836;12.060;2024-01-10T03:33:12;-5.60;68.80
19110;DHT22;9687;50.836;12.060;2024-01-10T03:35:43;-5.60;68.10
19110;DHT22;9687;50.836;12.060;2024-01-10T03:38:12;-5.60;68.00
19110;DHT22;9687;50.836;12.060;2024-01-10T03:40:42;-5.60;68.70
19110;DHT22;9687;50.836;12.060;2024-01-10T03:43:11;-5.60;68.00
19110;DHT22;9687;50.836;12.060;2024-01-10T03:45:39;-5.60;68.00
19110;DHT22;9687;50.836;12.060;2024-01-10T03:48:09;-5.60;68.00
19110;DHT22;9687;50.836;12.060;2024-01-10T03:50:37;-5.60;68.00
19110;DHT22;9687;50.836;12.060;2024-01-10T03:53:07;-5.60;68.60
19110;DHT22;9687;50.836;12.060;2024-01-10T03:55:35;-5.60;68.10
19110;DHT22;9687;50.836;12.060;2024-01-10T03:58:05;-5.60;68.10
19110;DHT22;9687;50.836;12.060;2024-01-10T04:00:36;-5.60;68.10
19110;DHT22;9687;50.836;12.060;2024-01-10T04:03:05;-5.60;68.10
19110;DHT22;9687;50.836;12.060;2024-01-10T04:05:34;-5.50;68.80
19110;DHT22;9687;50.836;12.060;2024-01-10T04:08:02;-5.50;68.80
19110;DHT22;9687;50.836;12.060;2024-01-10T04:10:31;-5.60;68.60
19110;DHT22;9687;50.836;12.060;2024-01-10T04:12:58;-5.50;68.70
19110;DHT22;9687;50.836;12.060;2024-01-10T04:15:27;-5.60;67.80
19110;DHT22;9687;50.836;12.060;2024-01-10T04:17:55;-5.60;67.80
19110;DHT22;9687;50.836;12.060;2024-01-10T04:20:24;-5.60;68.40
19110;DHT22;9687;50.836;12.060;2024-01-10T04:22:52;-5.70;67.70
19110;DHT22;9687;50.836;12.060;2024-01-10T04:25:20;-5.70;67.80
19110;DHT22;9687;50.836;12.060;2024-01-10T04:27:49;-5.70;68.40
19110;DHT22;9687;50.836;12.060;2024-01-10T04:30:19;-5.70;67.90
19110;DHT22;9687;50.836;12.060;2024-01-10T04:32:47;-5.80;68.50
19110;DHT22;9687;50.836;12.060;2024-01-10T04:35:16;-5.80;68.50
19110;DHT22;9687;50.836;12.060;2024-01-10T04:37:44;-5.90;67.80
19110;DHT22;9687;50.836;12.060;2024-01-10T04:40:12;-5.80;68.60
19110;DHT22;9687;50.836;12.060;2024-01-10T04:42:40;-5.90;68.60
19110;DHT22;9687;50.836;12.060;2024-01-10T04:45:12;-5.80;68.80
19110;DHT22;9687;50.836;12.060;2024-01-10T04:47:42;-5.80;68.90
19110;DHT22;9687;50.836;12.060;2024-01-10T04:50:12;-5.80;68.90
19110;DHT22;9687;50.836;12.060;2024-01-10T04:52:40;-5.80;68.20
19110;DHT22;9687;50.836;12.060;2024-01-10T04:55:08;-5.80;68.90
19110;DHT22;9687;50.836;12.060;2024-01-10T04:57:39;-5.80;68.80
19110;DHT22;9687;50.836;12.060;2024-01-10T05:00:12;-5.70;68.90
19110;DHT22;9687;50.836;12.060;2024-01-10T05:02:40;-5.70;68.80
19110;DHT22;9687;50.836;12.060;2024-01-10T05:05:09;-5.70;68.80
19110;DHT22;9687;50.836;12.060;2024-01-10T05:07:40;-5.70;68.80
19110;DHT22;9687;50.836;12.060;2024-01-10T05:10:08;-5.70;68.10
19110;DHT22;9687;50.836;12.060;2024-01-10T05:12:37;-5.70;68.10
19110;DHT22;9687;50.836;12.060;2024-01-10T05:15:05;-5.70;68.70
19110;DHT22;9687;50.836;12.060;2024-01-10T05:17:36;-5.70;68.70
19110;DHT22;9687;50.836;12.060;2024-01-10T05:20:07;-5.60;68.20
19110;DHT22;9687;50.836;12.060;2024-01-10T05:22:36;-5.60;68.90
19110;DHT22;9687;50.836;12.060;2024-01-10T05:25:05;-5.60;68.20
19110;DHT22;9687;50.836;12.060;2024-01-10T05:27:35;-5.60;68.90
19110;DHT22;9687;50.836;12.060;2024-01-10T05:30:04;-5.60;68.20
19110;DHT22;9687;50.836;12.060;2024-01-10T05:32:31;-5.60;68.90
19110;DHT22;9687;50.836;12.060;2024-01-10T05:35:07;-5.60;68.90
19110;DHT22;9687;50.836;12.060;2024-01-10T05:37:39;-5.50;69.20
19110;DHT22;9687;50.836;12.060;2024-01-10T05:40:07;-5.50;69.00
19110;DHT22;9687;50.836;12.060;2024-01-10T05:42:34;-5.50;68.40
19110;DHT22;9687;50.836;12.060;2024-01-10T05:45:04;-5.50;68.40
19110;DHT22;9687;50.836;12.060;2024-01-10T05:47:32;-5.50;69.70
19110;DHT22;9687;50.836;12.060;2024-01-10T05:49:59;-5.50;69.00
19110;DHT22;9687;50.836;12.060;2024-01-10T05:52:29;-5.50;69.00
19110;DHT22;9687;50.836;12.060;2024-01-10T05:54:58;-5.50;69.00
19110;DHT22;9687;50.836;12.060;2024-01-10T05:57:30;-5.50;68.30
19110;DHT22;9687;50.836;12.060;2024-01-10T05:59:59;-5.50;68.90
19110;DHT22;9687;50.836;12.060;2024-01-10T06:02:28;-5.50;68.90
19110;DHT22;9687;50.836;12.060;2024-01-10T06:04:56;-5.50;68.30
19110;DHT22;9687;50.836;12.060;2024-01-10T06:07:24;-5.50;68.30
19110;DHT22;9687;50.836;12.060;2024-01-10T06:09:53;-5.50;68.30
19110;DHT22;9687;50.836;12.060;2024-01-10T06:12:23;-5.50;69.00
19110;DHT22;9687;50.836;12.060;2024-01-10T06:14:52;-5.50;69.00
19110;DHT22;9687;50.836;12.060;2024-01-10T06:17:20;-5.50;68.50
19110;DHT22;9687;50.836;12.060;2024-01-10T06:19:48;-5.60;69.00
19110;DHT22;9687;50.836;12.060;2024-01-10T06:22:18;-5.60;69.00
19110;DHT22;9687;50.836;12.060;2024-01-10T06:24:50;-5.50;69.10
19110;DHT22;9687;50.836;12.060;2024-01-10T06:27:20;-5.60;69.10
19110;DHT22;9687;50.836;12.060;2024-01-10T06:29:48;-5.60;69.00
19110;DHT22;9687;50.836;12.060;2024-01-10T06:32:15;-5.60;69.00
19110;DHT22;9687;50.836;12.060;2024-01-10T06:34:45;-5.60;69.10
19110;DHT22;9687;50.836;12.060;2024-01-10T06:37:12;-5.60;69.10
19110;DHT22;9687;50.836;12.060;2024-01-10T06:42:39;-5.60;69.10
19110;DHT22;9687;50.836;12.060;2024-01-10T06:45:09;-5.60;69.20
19110;DHT22;9687;50.836;12.060;2024-01-10T06:47:45;-5.60;69.20
19110;DHT22;9687;50.836;12.060;2024-01-10T06:50:15;-5.70;68.40
19110;DHT22;9687;50.836;12.060;2024-01-10T06:52:44;-5.70;69.00
19110;DHT22;9687;50.836;12.060;2024-01-10T06:55:26;-5.70;68.50
19110;DHT22;9687;50.836;12.060;2024-01-10T06:57:57;-5.70;69.10
19110;DHT22;9687;50.836;12.060;2024-01-10T07:00:25;-5.70;69.10
19110;DHT22;9687;50.836;12.060;2024-01-10T07:02:53;-5.70;69.20
19110;DHT22;9687;50.836;12.060;2024-01-10T07:05:22;-5.70;69.20
19110;DHT22;9687;50.836;12.060;2024-01-10T07:07:53;-5.60;69.40
19110;DHT22;9687;50.836;12.060;2024-01-10T07:10:23;-5.60;68.70
19110;DHT22;9687;50.836;12.060;2024-01-10T07:12:58;-5.60;70.30
19110;DHT22;9687;50.836;12.060;2024-01-10T07:15:26;-5.60;68.70
19110;DHT22;9687;50.836;12.060;2024-01-10T07:17:54;-5.60;69.40
19110;DHT22;9687;50.836;12.060;2024-01-10T07:20:23;-5.50;69.40
19110;DHT22;9687;50.836;12.060;2024-01-10T07:22:51;-5.60;69.40
19110;DHT22;9687;50.836;12.060;2024-01-10T07:25:20;-5.60;69.40
19110;DHT22;9687;50.836;12.060;2024-01-10T07:27:52;-5.50;69.50
19110;DHT22;9687;50.836;12.060;2024-01-10T07:30:23;-5.50;69.50
19110;DHT22;9687;50.836;12.060;2024-01-10T07:32:55;-5.50;69.00
19110;DHT22;9687;50.836;12.060;2024-01-10T07:35:23;-5.50;69.00
19110;DHT22;9687;50.836;12.060;2024-01-10T07:37:58;-5.50;69.60
19110;DHT22;9687;50.836;12.060;2024-01-10T07:40:25;-5.50;69.60
19110;DHT22;9687;50.836;12.060;2024-01-10T07:42:53;-5.50;69.60
19110;DHT22;9687;50.836;12.060;2024-01-10T07:45:24;-5.50;69.70
19110;DHT22;9687;50.836;12.060;2024-01-10T07:47:52;-5.40;69.30
19110;DHT22;9687;50.836;12.060;2024-01-10T07:50:21;-5.40;69.30
19110;DHT22;9687;50.836;12.060;2024-01-10T07:52:53;-5.40;69.90
19110;DHT22;9687;50.836;12.060;2024-01-10T07:55:20;-5.40;69.90
19110;DHT22;9687;50.836;12.060;2024-01-10T07:57:49;-5.40;69.40
19110;DHT22;9687;50.836;12.060;2024-01-10T08:00:18;-5.50;69.90
19110;DHT22;9687;50.836;12.060;2024-01-10T08:02:49;-5.40;70.10
19110;DHT22;9687;50.836;12.060;2024-01-10T08:05:18;-5.40;70.10
19110;DHT22;9687;50.836;12.060;2024-01-10T08:07:48;-5.30;70.20
19110;DHT22;9687;50.836;12.060;2024-01-10T08:10:17;-5.40;69.60
19110;DHT22;9687;50.836;12.060;2024-01-10T08:12:46;-5.30;69.60
19110;DHT22;9687;50.836;12.060;2024-01-10T08:15:15;-5.30;69.80
19110;DHT22;9687;50.836;12.060;2024-01-10T08:17:43;-5.30;69.70
19110;DHT22;9687;50.836;12.060;2024-01-10T08:20:13;-5.30;70.40
19110;DHT22;9687;50.836;12.060;2024-01-10T08:22:46;-5.20;70.50
19110;DHT22;9687;50.836;12.060;2024-01-10T08:25:14;-5.20;70.50
19110;DHT22;9687;50.836;12.060;2024-01-10T08:27:44;-5.20;71.20
19110;DHT22;9687;50.836;12.060;2024-01-10T08:30:15;-5.20;70.60
19110;DHT22;9687;50.836;12.060;2024-01-10T08:32:43;-5.20;70.60
19110;DHT22;9687;50.836;12.060;2024-01-10T08:35:14;-5.10;70.70
19110;DHT22;9687;50.836;12.060;2024-01-10T08:37:49;-5.10;70.60
19110;DHT22;9687;50.836;12.060;2024-01-10T08:40:19;-5.00;70.70
19110;DHT22;9687;50.836;12.060;2024-01-10T08:42:55;-5.00;70.70
19110;DHT22;9687;50.836;12.060;2024-01-10T08:45:23;-5.00;70.70
19110;DHT22;9687;50.836;12.060;2024-01-10T08:47:50;-4.90;70.80
19110;DHT22;9687;50.836;12.060;2024-01-10T08:50:21;-4.90;70.80
19110;DHT22;9687;50.836;12.060;2024-01-10T08:52:49;-4.90;70.80
19110;DHT22;9687;50.836;12.060;2024-01-10T08:55:20;-4.80;71.00
19110;DHT22;9687;50.836;12.060;2024-01-10T08:57:48;-4.70;70.60
19110;DHT22;9687;50.836;12.060;2024-01-10T09:00:18;-4.30;71.70
19110;DHT22;9687;50.836;12.060;2024-01-10T09:02:45;-4.50;71.50
19110;DHT22;9687;50.836;12.060;2024-01-10T09:05:15;-4.40;71.70
19110;DHT22;9687;50.836;12.060;2024-01-10T09:07:44;-4.20;71.90
19110;DHT22;9687;50.836;12.060;2024-01-10T09:10:11;-4.00;72.00
19110;DHT22;9687;50.836;12.060;2024-01-10T09:12:40;-3.80;71.30
19110;DHT22;9687;50.836;12.060;2024-01-10T09:15:12;-3.70;72.00
19110;DHT22;9687;50.836;12.060;2024-01-10T09:17:42;-3.50;71.20
19110;DHT22;9687;50.836;12.060;2024-01-10T09:23:39;-3.30;71.50
19110;DHT22;9687;50.836;12.060;2024-01-10T09:26:07;-3.20;71.50
19110;DHT22;9687;50.836;12.060;2024-01-10T09:28:40;-3.10;71.40
19110;DHT22;9687;50.836;12.060;2024-01-10T09:31:10;-3.00;71.30
19110;DHT22;9687;50.836;12.060;2024-01-10T09:33:39;-2.90;71.20
19110;DHT22;9687;50.836;12.060;2024-01-10T09:36:09;-2.90;71.30
19110;DHT22;9687;50.836;12.060;2024-01-10T09:38:37;-2.60;70.90
19110;DHT22;9687;50.836;12.060;2024-01-10T09:41:08;-2.60;71.60
19110;DHT22;9687;50.836;12.060;2024-01-10T09:43:39;-2.50;71.50
19110;DHT22;9687;50.836;12.060;2024-01-10T09:46:07;-2.40;71.20
19110;DHT22;9687;50.836;12.060;2024-01-10T09:48:36;-2.30;70.30
19110;DHT22;9687;50.836;12.060;2024-01-10T09:51:12;-2.20;70.90
19110;DHT22;9687;50.836;12.060;2024-01-10T09:53:43;-2.20;70.60
19110;DHT22;9687;50.836;12.060;2024-01-10T09:56:13;-2.20;70.30
19110;DHT22;9687;50.836;12.060;2024-01-10T09:58:43;-2.20;70.10
19110;DHT22;9687;50.836;12.060;2024-01-10T10:01:12;-2.20;70.80
19110;DHT22;9687;50.836;12.060;2024-01-10T10:03:41;-2.20;70.90
19110;DHT22;9687;50.836;12.060;2024-01-10T10:06:12;-2.10;70.30
19110;DHT22;9687;50.836;12.060;2024-01-10T10:08:39;-2.00;71.10
19110;DHT22;9687;50.836;12.060;2024-01-10T10:11:11;-1.90;70.90
19110;DHT22;9687;50.836;12.060;2024-01-10T10:13:42;-1.80;70.90
19110;DHT22;9687;50.836;12.060;2024-01-10T10:16:10;-1.70;70.90
19110;DHT22;9687;50.836;12.060;2024-01-10T10:18:39;-1.70;70.60
19110;DHT22;9687;50.836;12.060;2024-01-10T10:21:13;-1.60;70.50
19110;DHT22;9687;50.836;12.060;2024-01-10T10:23:57;-1.50;70.60
19110;DHT22;9687;50.836;12.060;2024-01-10T10:26:27;-1.40;70.70
19110;DHT22;9687;50.836;12.060;2024-01-10T10:28:58;-1.20;70.10
19110;DHT22;9687;50.836;12.060;2024-01-10T10:31:27;-1.20;69.80
19110;DHT22;9687;50.836;12.060;2024-01-10T10:33:55;-1.10;70.30
19110;DHT22;9687;50.836;12.060;2024-01-10T10:36:23;-1.00;70.20
19110;DHT22;9687;50.836;12.060;2024-01-10T10:38:51;-0.90;70.40
19110;DHT22;9687;50.836;12.060;2024-01-10T10:41:19;-0.80;70.40
19110;DHT22;9687;50.836;12.060;2024-01-10T10:43:48;-0.70;70.30
19110;DHT22;9687;50.836;12.060;2024-01-10T10:46:19;-0.60;70.30
19110;DHT22;9687;50.836;12.060;2024-01-10T10:49:02;-0.50;69.00
19110;DHT22;9687;50.836;12.060;2024-01-10T10:51:34;-0.50;69.60
19110;DHT22;9687;50.836;12.060;2024-01-10T10:54:03;-0.40;69.70
19110;DHT22;9687;50.836;12.060;2024-01-10T11:00:06;-0.20;68.90
19110;DHT22;9687;50.836;12.060;2024-01-10T11:02:37;-0.10;69.50
19110;DHT22;9687;50.836;12.060;2024-01-10T11:05:08;0.00;68.50
19110;DHT22;9687;50.836;12.060;2024-01-10T11:07:37;0.10;68.30
19110;DHT22;9687;50.836;12.060;2024-01-10T11:10:08;0.00;68.90
19110;DHT22;9687;50.836;12.060;2024-01-10T11:12:46;0.10;68.50
19110;DHT22;9687;50.836;12.060;2024-01-10T11:15:26;0.20;69.10
19110;DHT22;9687;50.836;12.060;2024-01-10T11:18:06;0.30;68.00
19110;DHT22;9687;50.836;12.060;2024-01-10T11:20:44;0.30;67.60
19110;DHT22;9687;50.836;12.060;2024-01-10T11:23:22;0.30;68.20
19110;DHT22;9687;50.836;12.060;2024-01-10T11:26:00;0.30;67.00
19110;DHT22;9687;50.836;12.060;2024-01-10T11:28:32;0.30;67.50
19110;DHT22;9687;50.836;12.060;2024-01-10T11:30:59;0.30;67.20
19110;DHT22;9687;50.836;12.060;2024-01-10T11:33:32;0.30;67.10
19110;DHT22;9687;50.836;12.060;2024-01-10T11:36:05;0.30;66.20
19110;DHT22;9687;50.836;12.060;2024-01-10T11:38:40;0.40;67.00
19110;DHT22;9687;50.836;12.060;2024-01-10T11:41:12;0.40;67.70
19110;DHT22;9687;50.836;12.060;2024-01-10T11:43:42;0.50;67.10
19110;DHT22;9687;50.836;12.060;2024-01-10T11:46:19;0.60;66.50
19110;DHT22;9687;50.836;12.060;2024-01-10T11:48:54;0.60;67.10
19110;DHT22;9687;50.836;12.060;2024-01-10T11:51:39;0.70;66.30
19110;DHT22;9687;50.836;12.060;2024-01-10T11:54:41;0.70;66.60
19110;DHT22;9687;50.836;12.060;2024-01-10T11:57:11;0.70;67.20
19110;DHT22;9687;50.836;12.060;2024-01-10T11:59:41;0.80;66.70
19110;DHT22;9687;50.836;12.060;2024-01-10T12:02:09;0.80;67.30
19110;DHT22;9687;50.836;12.060;2024-01-10T12:04:47;0.90;67.40
19110;DHT22;9687;50.836;12.060;2024-01-10T12:07:17;1.00;66.90
19110;DHT22;9687;50.836;12.060;2024-01-10T12:09:45;1.00;66.60
19110;DHT22;9687;50.836;12.060;2024-01-10T12:12:15;1.10;67.30
19110;DHT22;9687;50.836;12.060;2024-01-10T12:14:59;1.10;67.50
19110;DHT22;9687;50.836;12.060;2024-01-10T12:17:30;1.20;67.60
19110;DHT22;9687;50.836;12.060;2024-01-10T12:19:59;1.20;67.70
19110;DHT22;9687;50.836;12.060;2024-01-10T12:22:31;1.30;67.80
19110;DHT22;9687;50.836;12.060;2024-01-10T12:25:04;1.40;67.90
19110;DHT22;9687;50.836;12.060;2024-01-10T12:27:35;1.40;67.80
19110;DHT22;9687;50.836;12.060;2024-01-10T12:30:15;1.50;67.40
19110;DHT22;9687;50.836;12.060;2024-01-10T12:32:43;1.50;66.60
19110;DHT22;9687;50.836;12.060;2024-01-10T12:35:12;1.60;67.40
19110;DHT22;9687;50.836;12.060;2024-01-10T12:37:41;1.60;67.30
19110;DHT22;9687;50.836;12.060;2024-01-10T12:40:12;1.60;66.40
19110;DHT22;9687;50.836;12.060;2024-01-10T12:42:39;1.80;67.20
19110;DHT22;9687;50.836;12.060;2024-01-10T12:45:20;1.70;67.00
19110;DHT22;9687;50.836;12.060;2024-01-10T12:47:52;1.60;66.80
19110;DHT22;9687;50.836;12.060;2024-01-10T12:50:22;1.60;66.70
19110;DHT22;9687;50.836;12.060;2024-01-10T12:52:51;1.60;66.00
19110;DHT22;9687;50.836;12.060;2024-01-10T12:55:19;1.60;66.00
19110;DHT22;9687;50.836;12.060;2024-01-10T12:57:47;1.60;66.00
19110;DHT22;9687;50.836;12.060;2024-01-10T13:00:16;1.60;65.90
19110;DHT22;9687;50.836;12.060;2024-01-10T13:02:44;1.60;66.00
19110;DHT22;9687;50.836;12.060;2024-01-10T13:05:14;1.50;66.60
19110;DHT22;9687;50.836;12.060;2024-01-10T13:07:44;1.50;66.10
19110;DHT22;9687;50.836;12.060;2024-01-10T13:10:15;1.40;66.70
19110;DHT22;9687;50.836;12.060;2024-01-10T13:12:44;1.40;66.20
19110;DHT22;9687;50.836;12.060;2024-01-10T13:15:14;1.30;66.80
19110;DHT22;9687;50.836;12.060;2024-01-10T13:17:45;1.30;66.30
19110;DHT22;9687;50.836;12.060;2024-01-10T13:20:13;1.30;67.10
19110;DHT22;9687;50.836;12.060;2024-01-10T13:22:45;1.20;66.40
19110;DHT22;9687;50.836;12.060;2024-01-10T13:25:13;1.10;66.50
19110;DHT22;9687;50.836;12.060;2024-01-10T13:27:46;1.00;66.40
19110;DHT22;9687;50.836;12.060;2024-01-10T13:30:13;1.00;67.30
19110;DHT22;9687;50.836;12.060;2024-01-10T13:32:42;0.90;67.40
19110;DHT22;9687;50.836;12.060;2024-01-10T13:35:14;0.90;66.80
19110;DHT22;9687;50.836;12.060;2024-01-10T13:37:45;0.70;66.70
19110;DHT22;9687;50.836;12.060;2024-01-10T13:40:14;0.70;67.50
19110;DHT22;9687;50.836;12.060;2024-01-10T13:42:45;0.60;67.00
19110;DHT22;9687;50.836;12.060;2024-01-10T13:45:12;0.60;67.80
19110;DHT22;9687;50.836;12.060;2024-01-10T13:47:43;0.60;68.00
19110;DHT22;9687;50.836;12.060;2024-01-10T13:50:38;0.50;68.00
19110;DHT22;9687;50.836;12.060;2024-01-10T13:53:07;0.50;68.10
19110;DHT22;9687;50.836;12.060;2024-01-10T13:55:37;0.40;68.10
19110;DHT22;9687;50.836;12.060;2024-01-10T13:58:07;0.40;67.60
19110;DHT22;9687;50.836;12.060;2024-01-10T14:00:35;0.30;67.60
19110;DHT22;9687;50.836;12.060;2024-01-10T14:03:04;0.30;67.60
19110;DHT22;9687;50.836;12.060;2024-01-10T14:05:31;0.30;68.40
19110;DHT22;9687;50.836;12.060;2024-01-10T14:10:51;0.20;68.40
19110;DHT22;9687;50.836;12.060;2024-01-10T14:13:20;0.20;67.90
19110;DHT22;9687;50.836;12.060;2024-01-10T14:15:52;0.20;67.80
19110;DHT22;9687;50.836;12.060;2024-01-10T14:18:23;0.10;68.50
19110;DHT22;9687;50.836;12.060;2024-01-10T14:20:51;0.10;68.50
19110;DHT22;9687;50.836;12.060;2024-01-10T14:23:23;0.10;67.80
19110;DHT22;9687;50.836;12.060;2024-01-10T14:25:53;0.00;67.80
19110;DHT22;9687;50.836;12.060;2024-01-10T14:28:21;0.00;67.90
19110;DHT22;9687;50.836;12.060;2024-01-10T14:30:48;0.00;68.50
19110;DHT22;9687;50.836;12.060;2024-01-10T14:33:17;0.00;68.60
19110;DHT22;9687;50.836;12.060;2024-01-10T14:35:44;-0.10;68.00
19110;DHT22;9687;50.836;12.060;2024-01-10T14:38:14;0.00;69.50
19110;DHT22;9687;50.836;12.060;2024-01-10T14:40:42;-0.10;68.70
19110;DHT22;9687;50.836;12.060;2024-01-10T14:43:12;-0.10;68.70
19110;DHT22;9687;50.836;12.060;2024-01-10T14:45:43;-0.20;68.10
19110;DHT22;9687;50.836;12.060;2024-01-10T14:48:12;-0.20;68.10
19110;DHT22;9687;50.836;12.060;2024-01-10T14:50:41;-0.20;68.20
19110;DHT22;9687;50.836;12.060;2024-01-10T14:53:08;-0.20;68.90
19110;DHT22;9687;50.836;12.060;2024-01-10T14:55:38;-0.30;68.20
19110;DHT22;9687;50.836;12.060;2024-01-10T14:58:06;-0.30;68.90
19110;DHT22;9687;50.836;12.060;2024-01-10T15:00:36;-0.30;68.30
19110;DHT22;9687;50.836;12.060;2024-01-10T15:03:04;-0.30;69.10
19110;DHT22;9687;50.836;12.060;2024-01-10T15:05:31;-0.40;68.30
19110;DHT22;9687;50.836;12.060;2024-01-10T15:07:59;-0.50;68.90
19110;DHT22;9687;50.836;12.060;2024-01-10T15:10:29;-0.50;68.40
19110;DHT22;9687;50.836;12.060;2024-01-10T15:12:56;-0.50;68.50
19110;DHT22;9687;50.836;12.060;2024-01-10T15:15:25;-0.60;68.50
19110;DHT22;9687;50.836;12.060;2024-01-10T15:20:49;-0.60;69.20
19110;DHT22;9687;50.836;12.060;2024-01-10T15:23:18;-0.60;69.30
19110;DHT22;9687;50.836;12.060;2024-01-10T15:25:46;-0.70;68.60
19110;DHT22;9687;50.836;12.060;2024-01-10T15:28:14;-0.70;68.70
19110;DHT22;9687;50.836;12.060;2024-01-10T15:30:41;-0.70;69.40
19110;DHT22;9687;50.836;12.060;2024-01-10T15:33:10;-0.70;69.40
19110;DHT22;9687;50.836;12.060;2024-01-10T15:35:38;-0.80;68.80
19110;DHT22;9687;50.836;12.060;2024-01-10T15:38:09;-0.80;68.90
19110;DHT22;9687;50.836;12.060;2024-01-10T15:40:37;-0.80;68.90
19110;DHT22;9687;50.836;12.060;2024-01-10T15:43:05;-0.80;69.00
19110;DHT22;9687;50.836;12.060;2024-01-10T15:45:33;-0.80;69.70
19110;DHT22;9687;50.836;12.060;2024-01-10T15:48:05;-0.60;69.30
19110;DHT22;9687;50.836;12.060;2024-01-10T15:50:34;-0.90;69.10
19110;DHT22;9687;50.836;12.060;2024-01-10T15:53:02;-0.90;69.80
19110;DHT22;9687;50.836;12.060;2024-01-10T15:55:33;-0.90;69.10
19110;DHT22;9687;50.836;12.060;2024-01-10T15:58:04;-0.90;69.80
19110;DHT22;9687;50.836;12.060;2024-01-10T16:00:34;-1.00;69.10
19110;DHT22;9687;50.836;12.060;2024-01-10T16:03:03;-1.00;69.80
19110;DHT22;9687;50.836;12.060;2024-01-10T16:05:32;-1.00;69.20
19110;DHT22;9687;50.836;12.060;2024-01-10T16:08:02;-1.00;69.90